createdAt,value
2023-04-18T14:21:29.181Z,2.20
2023-04-18T14:23:56.539Z,1.70
2023-04-18T14:26:23.824Z,1.63
2023-04-18T14:28:51.233Z,1.45
2023-04-18T14:31:18.592Z,2.05
2023-04-18T14:33:46.282Z,2.00
2023-04-18T14:36:15.141Z,1.58
2023-04-18T14:38:42.526Z,1.73
2023-04-18T14:41:09.671Z,1.63
2023-04-18T14:43:37.005Z,1.95
2023-04-18T14:46:10.492Z,1.60
2023-04-18T14:48:37.618Z,1.60
2023-04-18T14:51:04.740Z,1.52
2023-04-18T14:53:31.830Z,2.00
2023-04-18T14:55:58.916Z,2.40
2023-04-18T14:58:26.081Z,1.90
2023-04-18T15:00:53.164Z,1.80
2023-04-18T15:03:20.408Z,1.80
2023-04-18T15:05:48.972Z,1.73
2023-04-18T15:08:16.223Z,2.00
2023-04-18T15:10:44.448Z,1.48
2023-04-18T15:13:11.570Z,1.40
2023-04-18T15:15:39.779Z,1.70
2023-04-18T15:18:08.517Z,1.58
2023-04-18T15:20:37.112Z,2.42
2023-04-18T15:23:04.319Z,1.60
2023-04-18T15:25:31.509Z,1.70
2023-04-18T15:27:58.685Z,1.60
2023-04-18T15:30:25.876Z,1.45
2023-04-18T15:32:53.976Z,1.25
2023-04-18T15:35:21.239Z,1.20
2023-04-18T15:37:49.205Z,1.48
2023-04-18T15:40:18.130Z,1.45
2023-04-18T15:42:45.983Z,1.20
2023-04-18T15:45:13.252Z,1.00
2023-04-18T15:47:41.372Z,1.15
2023-04-18T15:50:09.134Z,1.50
2023-04-18T15:52:36.625Z,1.20
2023-04-18T15:55:04.986Z,1.17
2023-04-18T15:57:32.500Z,1.83
2023-04-18T15:59:59.788Z,2.13
2023-04-18T16:02:27.186Z,1.40
2023-04-18T16:04:54.500Z,1.55
2023-04-18T16:07:21.768Z,1.70
2023-04-18T16:09:48.898Z,1.55
2023-04-18T16:12:16.276Z,1.63
2023-04-18T16:14:43.400Z,1.70
2023-04-18T16:17:10.486Z,1.17
2023-04-18T16:19:38.873Z,2.08
2023-04-18T16:22:07.089Z,2.40
2023-04-18T16:24:34.297Z,1.42
2023-04-18T16:27:01.478Z,1.10
2023-04-18T16:29:28.677Z,1.40
2023-04-18T16:36:27.482Z,1.50
2023-04-18T16:38:54.615Z,1.40
2023-04-18T16:41:21.698Z,2.22
2023-04-18T16:43:48.817Z,1.75
2023-04-18T16:46:16.097Z,1.98
2023-04-18T16:48:45.147Z,1.60
2023-04-18T16:51:13.122Z,1.88
2023-04-18T16:53:40.339Z,2.53
2023-04-18T16:56:08.899Z,1.90
2023-04-18T16:58:36.079Z,2.72
2023-04-18T17:01:03.281Z,1.40
2023-04-18T17:03:30.526Z,1.88
2023-04-18T17:05:57.803Z,1.80
2023-04-18T17:08:27.011Z,1.70
2023-04-18T17:10:54.682Z,2.50
2023-04-18T17:13:26.691Z,1.92
2023-04-18T17:15:53.989Z,1.90
2023-04-18T17:18:21.285Z,1.73
2023-04-18T17:20:48.370Z,1.58
2023-04-18T17:23:15.458Z,1.77
2023-04-18T17:25:42.682Z,2.00
2023-04-18T17:28:09.838Z,2.22
2023-04-18T17:30:40.005Z,2.75
2023-04-18T17:33:07.476Z,2.20
2023-04-18T17:35:34.701Z,1.80
2023-04-18T17:38:02.004Z,1.75
2023-04-18T17:40:29.109Z,2.10
2023-04-18T17:42:56.611Z,2.50
2023-04-18T17:45:24.061Z,1.60
2023-04-18T17:47:51.310Z,1.90
2023-04-18T17:50:18.544Z,2.25
2023-04-18T17:52:46.442Z,2.25
2023-04-18T17:55:13.755Z,1.92
2023-04-18T17:57:40.901Z,2.08
2023-04-18T18:00:11.562Z,2.13
2023-04-18T18:02:42.392Z,2.45
2023-04-18T18:05:16.582Z,2.15
2023-04-18T18:07:47.503Z,2.13
2023-04-18T18:10:22.264Z,1.73
2023-04-18T18:12:49.696Z,2.15
2023-04-18T18:15:17.988Z,2.20
2023-04-18T18:17:45.137Z,1.88
2023-04-18T18:20:12.527Z,2.20
2023-04-18T18:22:39.624Z,2.53
2023-04-18T18:25:07.355Z,2.25
2023-04-18T18:27:34.479Z,2.33
2023-04-18T18:30:01.912Z,3.08
2023-04-18T18:32:29.135Z,2.65
2023-04-18T18:34:56.313Z,2.65
2023-04-18T18:37:25.418Z,2.22
2023-04-18T18:39:54.528Z,2.33
2023-04-18T18:42:22.126Z,2.30
2023-04-18T18:44:49.230Z,2.03
2023-04-18T18:47:20.169Z,2.45
2023-04-18T18:49:48.652Z,2.38
2023-04-18T18:52:15.994Z,2.40
2023-04-18T18:54:43.134Z,2.00
2023-04-18T18:57:10.250Z,1.90
2023-04-18T18:59:37.340Z,2.28
2023-04-18T19:02:04.597Z,2.47
2023-04-18T19:04:32.351Z,2.50
2023-04-18T19:06:59.653Z,2.55
2023-04-18T19:09:27.303Z,3.35
2023-04-18T19:11:55.046Z,3.17
2023-04-18T19:14:22.255Z,2.67
2023-04-18T19:16:49.816Z,2.72
2023-04-18T19:19:17.456Z,3.05
2023-04-18T19:21:47.436Z,2.40
2023-04-18T19:24:14.779Z,2.50
2023-04-18T19:26:42.305Z,2.22
2023-04-18T19:29:10.189Z,2.75
2023-04-18T19:31:37.334Z,2.53
2023-04-18T19:34:04.572Z,3.05
2023-04-18T19:36:32.088Z,2.80
2023-04-18T19:38:59.257Z,2.85
2023-04-18T19:41:26.566Z,2.88
2023-04-18T19:43:53.679Z,2.45
2023-04-18T19:46:20.807Z,3.00
2023-04-18T19:48:47.925Z,4.10
2023-04-18T19:51:15.023Z,2.80
2023-04-18T19:53:42.132Z,3.13
2023-04-18T19:56:11.181Z,3.22
2023-04-18T19:58:44.981Z,3.22
2023-04-18T20:01:13.914Z,2.97
2023-04-18T20:03:41.726Z,2.92
2023-04-18T20:06:09.231Z,2.92
2023-04-18T20:08:45.084Z,3.47
2023-04-18T20:11:16.330Z,2.65
2023-04-18T20:13:43.518Z,3.15
2023-04-18T20:16:12.152Z,2.83
2023-04-18T20:18:41.731Z,3.28
2023-04-18T20:21:11.526Z,3.53
2023-04-18T20:23:41.958Z,4.20
2023-04-18T20:26:09.312Z,3.70
2023-04-18T20:28:37.821Z,3.38
2023-04-18T20:31:05.133Z,3.28
2023-04-18T20:33:32.866Z,3.53
2023-04-18T20:36:00.004Z,3.58
2023-04-18T20:38:29.377Z,3.92
2023-04-18T20:40:58.647Z,3.90
2023-04-18T20:43:26.722Z,3.53
2023-04-18T20:45:54.525Z,2.92
2023-04-18T20:48:21.797Z,3.10
2023-04-18T20:50:51.397Z,4.35
2023-04-18T20:53:26.037Z,5.72
2023-04-18T20:55:53.183Z,4.00
2023-04-18T20:58:20.644Z,3.47
2023-04-18T21:00:48.872Z,2.67
2023-04-18T21:03:16.789Z,2.97
2023-04-18T21:05:44.829Z,4.07
2023-04-18T21:08:12.086Z,3.42
2023-04-18T21:10:39.695Z,3.35
2023-04-18T21:13:07.588Z,3.53
2023-04-18T21:15:35.584Z,3.83
2023-04-18T21:18:02.913Z,3.40
2023-04-18T21:20:30.140Z,4.32
2023-04-18T21:22:57.301Z,4.90
2023-04-18T21:25:24.429Z,4.45
2023-04-18T21:27:51.806Z,4.55
2023-04-18T21:30:19.586Z,4.20
2023-04-18T21:32:48.934Z,4.45
2023-04-18T21:35:19.373Z,5.32
2023-04-18T21:37:47.321Z,5.15
2023-04-18T21:40:14.703Z,5.13
2023-04-18T21:42:42.027Z,4.85
2023-04-18T21:45:10.840Z,5.00
2023-04-18T21:47:38.349Z,4.38
2023-04-18T21:50:06.111Z,5.80
2023-04-18T21:52:33.289Z,5.40
2023-04-18T21:55:00.496Z,4.68
2023-04-18T21:57:27.693Z,4.72
2023-04-18T21:59:56.963Z,5.38
2023-04-18T22:02:25.345Z,5.45
2023-04-18T22:04:52.652Z,5.45
2023-04-18T22:07:19.996Z,5.72
2023-04-18T22:09:47.200Z,5.18
2023-04-18T22:12:14.314Z,5.43
2023-04-18T22:14:44.480Z,5.22
2023-04-18T22:17:11.601Z,5.15
2023-04-18T22:19:39.592Z,5.35
2023-04-18T22:22:06.722Z,6.00
2023-04-18T22:24:33.832Z,5.40
2023-04-18T22:27:01.251Z,6.05
2023-04-18T22:29:28.401Z,5.00
2023-04-18T22:31:55.690Z,5.00
2023-04-18T22:34:22.760Z,5.32
2023-04-18T22:36:49.853Z,5.38
2023-04-18T22:39:16.939Z,5.75
2023-04-18T22:41:44.076Z,5.00
2023-04-18T22:44:11.169Z,5.30
2023-04-18T22:46:39.273Z,5.82
2023-04-18T22:49:06.384Z,5.53
2023-04-18T22:51:34.139Z,4.95
2023-04-18T22:54:01.233Z,4.82
2023-04-18T22:56:28.440Z,4.80
2023-04-18T22:58:55.580Z,4.65
2023-04-18T23:01:22.691Z,5.40
2023-04-18T23:03:50.015Z,4.88
2023-04-18T23:06:17.256Z,4.93
2023-04-18T23:08:44.338Z,4.60
2023-04-18T23:11:11.521Z,4.97
2023-04-18T23:13:38.601Z,5.43
2023-04-18T23:16:06.266Z,4.57
2023-04-18T23:18:33.432Z,4.50
2023-04-18T23:21:00.998Z,4.35
2023-04-18T23:23:28.101Z,5.13
2023-04-18T23:25:55.329Z,4.57
2023-04-18T23:28:22.599Z,4.72
2023-04-18T23:30:50.259Z,4.70
2023-04-18T23:33:17.419Z,5.07
2023-04-18T23:35:44.519Z,4.55
2023-04-18T23:38:11.720Z,4.53
2023-04-18T23:40:38.796Z,4.35
2023-04-18T23:43:05.907Z,5.65
2023-04-18T23:45:33.034Z,4.93
2023-04-18T23:48:00.247Z,3.95
2023-04-18T23:50:27.494Z,4.25
2023-04-18T23:52:54.569Z,4.32
2023-04-18T23:55:21.809Z,3.90
2023-04-18T23:57:48.891Z,3.63
